DSNT2: Lake Texoma, Denison Dam

Data processed at Sat Dec 09 2017 23:09


All information presented herein is the property of the government of the United States of America and may be revised or deleted at any time without prior notice.
Dissemination of this information without the expressed written consent of the Public Affairs Office, Tulsa District U.S. Army Corps of Engineers is strictly prohibited.
These data are gathered electronically and, as presented, have not undergone any form of quality control. These data are not guaranteed to be valid or correct.
Go to home page.
Go to station list.

Upstream stations:

Downstream station:
Previous Day
Next Day
Current Day
    
SHEF ID:       DSNT2     Lake Texoma, Denison Dam
STATION TYPE:  Reservoir
Normal Pool:  Bottom =   590.00, Top =   618.16

               PRECIP PRECIP(A) ELEVATION   STORAGE   TW-ELEV    INFLOW   RELEASE  AIR-TEMP  WIND-DIRWIND-SPEED REL-HUMID SOLAR-RAD   VOLTAGE  BAT-LOAD
                   in        in        ft     ac-ft        ft       cfs       cfs         F       deg       mph         %      W/m2      volt      volt
              Ccp-Rev   Ccp-Rev   Ccp-Rev   Ccp-Rev   Ccp-Rev  Regi-Rev  Regi-Rev   Ccp-Rev   Ccp-Rev   Ccp-Rev   Ccp-Rev   Ccp-Rev   Ccp-Rev   Ccp-Rev
(US/Central)
12/07 00:00      0.00      0.00    618.75   2624226    501.73       979        19     46.92     11.80      9.65     42.37      0.00     12.95     12.65
12/07 01:00      0.00      0.00    618.75   2624226    501.73      2428        19     47.25     17.00      7.27     40.48      0.00     12.93     12.60
12/07 02:00      0.00      0.00    618.75   2624226    501.73      1948        19     48.58     10.20      9.03     47.56      0.00     12.92     12.60
12/07 03:00      0.00      0.00    618.76   2625023    501.74      4845        19     47.14    338.00     11.20     53.05      0.00     12.90     12.60
12/07 04:00      0.00      0.00    618.76   2625023    501.75      4885        19     45.50    346.50     13.90     51.04      0.00     12.88     12.54
12/07 05:00      0.00      0.00    618.78   2626617    501.75      4881        19     39.78     13.90     18.25     50.55      0.00     12.87     12.54
12/07 06:00      0.00      0.00    618.78   2626617    501.74      2949        19     37.69      9.10     17.93     56.23      0.00     12.86     12.54
12/07 07:00      0.00      0.00    618.81   2629007    501.76      2945        19     36.27      8.50     20.69     58.49      0.00     12.86     12.54
12/07 08:00      0.00      0.00    618.80   2628210    501.76        47        19     35.49      9.10     21.46     46.52     15.00     12.88     12.54
12/07 09:00      0.00      0.00    618.78   2626617    501.76         3        19     33.73     11.00     19.82     45.60     83.00     13.18     12.54
12/07 10:00      0.00      0.00    618.78   2626617    501.75         3        19     33.94     11.60     15.07     49.44    281.00     13.68     12.83
12/07 11:00      0.00      0.00    618.76   2625023    501.75         6        19     33.51      0.10     20.17     45.91    252.00     13.80     13.36
12/07 12:00      0.00      0.00    618.77   2625820    501.75         9        19     34.27     11.90     12.42     45.11    310.00     14.43     13.42
12/07 13:00      0.00      0.00    618.77   2625820    501.76         6        19     34.29    352.50     13.40     43.53    351.00     14.19     13.48
12/07 14:00      0.00      0.00    618.77   2625820    501.75         6        19     36.05    347.50     14.72     36.39    448.00     13.71     13.83
12/07 15:00      0.00      0.00    618.78   2626617    501.74        25      1169     37.80    345.80     15.64     37.48    331.00     13.93     13.65
12/07 16:00      0.00      0.00    618.76   2625023    501.76        42      4919     38.03    356.30     15.87     35.35    234.00     14.34     13.36
12/07 17:00      0.00      0.00    618.75   2624226    504.34       105      4919     38.34      3.10     15.50     38.15     39.00     13.16     13.07
12/07 18:00      0.00      0.00    618.75   2624226    506.44       105      4919     36.81     13.00     12.46     37.55      0.00     13.05     12.83
12/07 19:00      0.00      0.00    618.75   2624226    506.50       105      4919     35.60     16.50     10.95     39.86      0.00     13.03     12.71
12/07 20:00      0.00      0.00    618.75   2624226    505.43        85      4819     34.50      4.90     12.00     41.51      0.00     13.01     12.65
12/07 21:00      0.00      0.00    618.75   2624226    501.75        70      4919     33.62     21.90     10.48     46.83      0.00     12.99     12.65
12/07 22:00      0.00      0.00    618.73   2622633    501.76         8      4819     33.30     26.80      6.92     45.97      0.00     12.98     12.65
12/07 23:00      0.00      0.00    618.74   2623430    501.74        11        19     32.09     27.20      7.72     47.25      0.00     12.96     12.65